Terminal Aerodrome Forecast
Issued by NWS

Home | Current Version | Previous Version | Text Only | Print | Product List | Glossary On
Versions: 1 2 3 4 5 6 7 8 9 10 11 12 13 14 15 16 17 18 19 20 21 22 23 24 25 26 27 28 29 30 31 32 33 34 35 36 37 38 39 40 41 42 43 44 45 46 47 48 49 50
552
FTUS44 KHGX 190525
TAFSGR
TAF
KSGR 190525Z 1906/2006 15013KT P6SM SCT008 BKN015
     FM191500 16013G23KT P6SM SCT015 BKN025
     FM191800 17017G27KT P6SM SCT025 BKN045
     FM192200 15015G25KT P6SM SCT015 SCT035
     FM200100 14015KT P6SM SCT008 BKN015=

USA.gov is the U.S. government's official web portal to all federal, state and local government web resources and services.